Arapahoe, NE

10:12 AM CST on March 05, 2015 (GMT -0600)
Smithfield | Change Station
CLOSE
Current Station
Personal Weather Station
Location: Smithfield, NE
Elevation: 2507 ft
Nearby Weather Stations

Elev 2507 ft 40.63 °N, 99.74 °W | Updated 6 minutes ago

Clear
Clear
19.0 °F
Feels Like 7 °F
N
11.9
Wind Variable Wind from South

Today
High -- | Low -- °F
--% Chance of Precip.
Yesterday
High -- | Low -- °F
Precip. -- in
7:07 AM 6:35 PM
Full, 100% visible
Pressure 30.40 in
Visibility 10.0 miles
Clouds Clear
Windchill 7 °F
Dew Point 6 °F
Humidity 55%
Rainfall in
Snow Depth Not available.
UV 3 out of 12
Pollen 1.80 out of 12
Air Quality Not available.
Flu Activity Not available.
METAR KHDE 051555Z AUTO 16012KT 10SM CLR M08/M15 A3040 RMK AO2 T10851155

More Conditions Fewer Conditions

Pressure 30.40 in
Visibility 10.0 miles
Clouds Clear
Windchill 7 °F
Dew Point 6 °F
Humidity 55%
Rainfall in
Snow Depth Not available.
UV 3 out of 12
Pollen 1.80 out of 12
Air Quality Not available.
Flu Activity Not available.
METAR KHDE 051555Z AUTO 16012KT 10SM CLR M08/M15 A3040 RMK AO2 T10851155

More Conditions Fewer Conditions

10-Day Weather Forecast

Almanac

Astronomy

Mar. 05, 2015 Rise Set
Actual Time
Civil Twilight
Nautical Twilight
Astronomical Twilight
Moon
Length of Visible Light
Length of Day
Tomorrow will be .
, % of the Moon is Illuminated

Today's Extremes

State Highs State Lows

Community

WunderPhotos

Upload Photos

1,802,841 photos uploaded!

WunderBlogs® & News

Nearby

Air Quality

  Air Quality AQ Index Pollutant
Not available.

Snow Depth

Station Depth Elevation

Earthquake Activity

City Distance Mag. Time & Date
Minimum magnitude displayed is 2.5.

Coastal Water Temperatures

Place Temperature

Nearby Weather Stations